Share

Kilimanjaro, Tanzania

Kilimanjaro International (HTKJ) Elev 2940 ft | 3.43 °S, 37.07 °E | Change Station

Current weather conditions updated 1 hour ago

Mostly Cloudy
Mostly Cloudy
68 °F
Feels Like 68 °F
N
0
Wind Variable Wind from North
Sunrise 6:30 AM
Sunset 6:31 PM
Moon Waning Gibbous

Today is forecast to be nearly the same temperature as yesterday. Morning showers, possibly a rumble of thunder.

Pressure 30.04 in
Visibility 6.2 miles
Clouds Mostly Cloudy 2200 ft
Mostly Cloudy 8000 ft
Dew Point 66 °F
Humidity 94%
Rainfall 0.00 in
Snow Depth Not available.
UV 0 out of 16
Pollen Not available.
Air Quality Not available.
Flu Activity Not available.
METAR HTKJ 182000Z 00000KT 9999 BKN022 BKN080 20/19 Q1017 NOSIG

More Conditions Fewer Conditions

Pressure 30.04 in
Visibility 6.2 miles
Clouds Mostly Cloudy 2200 ft
Mostly Cloudy 8000 ft
Dew Point 66 °F
Humidity 94%
Rainfall 0.00 in
Snow Depth Not available.
UV 0 out of 16
Pollen Not available.
Air Quality Not available.
Flu Activity Not available.
METAR HTKJ 182000Z 00000KT 9999 BKN022 BKN080 20/19 Q1017 NOSIG

More Conditions Fewer Conditions

10-Day Weather Forecast

Almanac

Astronomy

Apr. 19, 2014 Rise Set
Actual Time 6:30 AM EAT 6:31 PM EAT
Civil Twilight 6:09 AM EAT 6:52 PM EAT
Nautical Twilight 5:44 AM EAT 7:17 PM EAT
Astronomical Twilight 5:20 AM EAT 7:41 PM EAT
Moon 10:21 PM EAT (4/19) 10:01 AM EAT (4/19)
Length of Visible Light 12h 43m
Length of Day
12h 01m
Tomorrow will be 0m 10s shorter.
Waning Gibbous, 85% of the Moon is Illuminated
Apr 18
Waning Gibbous
Apr 22
Last Quarter
Apr 29
New
May 6
First Quarter
May 14
Full

Yesterday's Extremes

Country Highs Country Lows

Community

  • Spring Chickadee
    Spring Chickadee
  • What's for Lunch?
    What's for Lunch?
  • SUNRISE THROUGH THE TREES.
    SUNRISE THROUGH THE TREES.
  • Dog Wood Blossoms
    Dog Wood Blossoms
  • Morning Light
    Morning Light

WunderPhotos

Upload Photos

1,702,513 photos uploaded!

WunderBlogs® & News

Nearby

Snow Depth

Not available.

Coastal Water Temperatures

Place Temperature
No Stations Reporting

Earthquake Activity

City Distance Mag. Time & Date
No recent earthquake activity has been reported nearby.
Minimum magnitude displayed is 2.5.

Nearby Weather Stations

There are no personal weather stations in this area.

What do you think?

We're not finished. Please let us know what you like, what you don't like, and what you are still missing.